Time;durP1;ratioP1;P1;durP2;ratioP2;P2;SDS_P1;SDS_P2;PMS_P1;PMS_P2;Temp;Humidity;BMP_temperature;BMP_pressure;BME280_temperature;BME280_humidity;BME280_pressure;Samples;Min_cycle;Max_cycle;Signal;HPM_P1;HPM_P2
2022/10/01 00:00:46;;;;;;;1999.90;999.90;;;;;;;11.91;100.00;94763.88;6260840;22;20189;-73
2022/10/01 00:03:12;;;;;;;1999.90;999.90;;;;;;;11.91;100.00;94769.34;6260684;22;20217;-73
2022/10/01 00:05:37;;;;;;;1999.90;999.90;;;;;;;11.91;100.00;94780.28;6260391;22;20181;-72
2022/10/01 00:08:03;;;;;;;1999.90;999.90;;;;;;;11.92;100.00;94784.56;6260079;22;20166;-75
2022/10/01 00:10:30;;;;;;;1999.90;999.90;;;;;;;11.94;100.00;94790.34;6286258;22;20183;-72
2022/10/01 00:12:57;;;;;;;1999.90;999.90;;;;;;;11.94;100.00;94799.34;6261112;22;20173;-71
2022/10/01 00:15:25;;;;;;;1999.90;999.90;;;;;;;11.95;100.00;94786.44;6260463;22;20867;-76
2022/10/01 00:17:51;;;;;;;1999.90;999.90;;;;;;;11.92;100.00;94793.53;6260529;22;20177;-72
2022/10/01 00:20:17;;;;;;;1999.90;999.90;;;;;;;11.95;100.00;94802.88;6260279;22;20173;-74
2022/10/01 00:22:42;;;;;;;1999.90;999.90;;;;;;;11.94;100.00;94796.59;6260561;22;20164;-74
2022/10/01 00:25:07;;;;;;;1999.90;999.90;;;;;;;11.93;100.00;94802.50;6260462;22;20196;-73
2022/10/01 00:27:34;;;;;;;1999.90;999.90;;;;;;;11.90;100.00;94806.88;6260728;22;20165;-74
2022/10/01 00:29:59;;;;;;;1999.90;999.90;;;;;;;11.88;100.00;94808.50;6260640;22;20210;-74
2022/10/01 00:32:25;;;;;;;1999.90;999.90;;;;;;;11.89;100.00;94810.03;6260626;22;20168;-74
2022/10/01 00:34:51;;;;;;;1999.90;999.90;;;;;;;11.89;100.00;94815.50;6260653;22;20173;-74
2022/10/01 00:37:17;;;;;;;1999.90;999.90;;;;;;;11.88;100.00;94819.44;6260665;22;20188;-75
2022/10/01 00:39:45;;;;;;;1999.90;999.90;;;;;;;11.87;100.00;94813.19;6286360;22;20173;-72
2022/10/01 00:42:21;;;;;;;1999.90;999.90;;;;;;;11.88;100.00;94813.97;6260322;22;20148;-72
2022/10/01 00:44:48;;;;;;;1999.90;999.90;;;;;;;11.84;100.00;94814.03;6260989;22;20168;-71
2022/10/01 00:47:27;;;;;;;1999.90;999.90;;;;;;;11.82;100.00;94804.72;6260425;22;20164;-73
2022/10/01 00:49:59;;;;;;;1999.90;999.90;;;;;;;11.81;100.00;94803.19;6260344;22;20232;-75
2022/10/01 00:52:29;;;;;;;1999.90;999.90;;;;;;;11.75;100.00;94815.81;6260248;22;20166;-70
2022/10/01 00:55:12;;;;;;;1999.90;999.90;;;;;;;11.73;100.00;94799.06;6260445;22;20187;-73
2022/10/01 00:57:38;;;;;;;1999.90;999.90;;;;;;;11.75;100.00;94810.34;6260191;22;20234;-71
2022/10/01 01:00:07;;;;;;;1999.90;999.90;;;;;;;11.77;100.00;94799.75;6261076;22;20174;-74
2022/10/01 01:02:33;;;;;;;1999.90;999.90;;;;;;;11.79;100.00;94792.66;6260511;22;20201;-71
2022/10/01 01:04:59;;;;;;;1999.90;999.90;;;;;;;11.79;100.00;94795.41;6260409;22;20168;-71
2022/10/01 01:07:25;;;;;;;1999.90;999.90;;;;;;;11.79;100.00;94794.63;6260404;22;20172;-69
2022/10/01 01:09:53;;;;;;;1999.90;999.90;;;;;;;11.79;100.00;94783.69;6260971;22;20185;-71
2022/10/01 01:12:44;;;;;;;1999.90;999.90;;;;;;;11.77;100.00;94766.94;6260705;22;20168;-70
2022/10/01 01:15:33;;;;;;;1999.90;999.90;;;;;;;11.78;100.00;94763.00;6260791;22;20168;-71
2022/10/01 01:18:20;;;;;;;1999.90;999.90;;;;;;;11.77;100.00;94764.19;6260992;22;20247;-71
2022/10/01 01:21:11;;;;;;;1999.90;999.90;;;;;;;11.75;100.00;94750.16;6260375;22;20560;-71
2022/10/01 01:23:55;;;;;;;1999.90;999.90;;;;;;;11.74;100.00;94743.94;6260550;22;20183;-71
2022/10/01 01:26:41;;;;;;;1999.90;999.90;;;;;;;11.70;100.00;94742.47;6285952;22;20174;-69
2022/10/01 01:29:15;;;;;;;1999.90;999.90;;;;;;;11.66;100.00;94736.31;6286899;22;20404;-70
2022/10/01 01:31:47;;;;;;;1999.90;999.90;;;;;;;11.60;100.00;94727.03;6259790;22;20148;-69
2022/10/01 01:34:22;;;;;;;1999.90;999.90;;;;;;;11.53;100.00;94719.00;6260716;22;20232;-70
2022/10/01 01:36:57;;;;;;;1999.90;999.90;;;;;;;11.46;100.00;94710.94;6260575;22;20173;-70
2022/10/01 01:39:25;;;;;;;1999.90;999.90;;;;;;;11.35;100.00;94699.50;6260665;22;20178;-70
2022/10/01 01:41:57;;;;;;;1999.90;999.90;;;;;;;11.33;100.00;94696.44;6260249;22;20173;-71
2022/10/01 01:44:30;;;;;;;1999.90;999.90;;;;;;;11.28;100.00;94689.50;6260102;22;20195;-71
2022/10/01 01:46:57;;;;;;;1999.90;999.90;;;;;;;11.23;100.00;94681.03;6260100;22;20165;-72
2022/10/01 01:49:24;;;;;;;1999.90;999.90;;;;;;;11.15;100.00;94679.66;6260312;22;20176;-70
2022/10/01 01:52:06;;;;;;;1999.90;999.90;;;;;;;11.07;100.00;94678.28;6260107;22;20195;-71
2022/10/01 01:54:34;;;;;;;1999.90;999.90;;;;;;;11.00;100.00;94670.97;6260691;22;20168;-72
2022/10/01 01:57:02;;;;;;;1999.90;999.90;;;;;;;10.89;100.00;94675.91;6260389;22;20168;-72
2022/10/01 01:59:30;;;;;;;1999.90;999.90;;;;;;;10.82;100.00;94672.56;6260139;22;20168;-70
2022/10/01 02:01:57;;;;;;;1999.90;999.90;;;;;;;10.75;100.00;94680.91;6260067;22;20161;-69
2022/10/01 02:04:29;;;;;;;1999.90;999.90;;;;;;;10.69;100.00;94666.19;6285655;22;20210;-70
2022/10/01 02:07:22;;;;;;;1999.90;999.90;;;;;;;10.59;100.00;94669.94;6260344;22;20224;-71
2022/10/01 02:10:14;;;;;;;1999.90;999.90;;;;;;;10.47;100.00;94681.44;6285836;22;20227;-70
2022/10/01 02:13:24;;;;;;;1999.90;999.90;;;;;;;10.38;100.00;94681.25;6255736;22;20191;-71
2022/10/01 02:16:03;;;;;;;1999.90;999.90;;;;;;;10.26;100.00;94692.78;6193735;23;20166;-71
2022/10/01 02:18:45;;;;;;;1999.90;999.90;;;;;;;10.23;100.00;94708.00;6168708;23;20194;-71
2022/10/01 02:21:39;;;;;;;1999.90;999.90;;;;;;;10.24;100.00;94703.34;6229506;22;20153;-71
2022/10/01 02:24:18;;;;;;;1999.90;999.90;;;;;;;10.20;100.00;94703.38;6260015;22;20195;-71
2022/10/01 02:26:47;;;;;;;1999.90;999.90;;;;;;;10.13;100.00;94703.53;6260216;22;20219;-71
2022/10/01 02:29:16;;;;;;;1999.90;999.90;;;;;;;10.12;100.00;94706.69;6260003;22;20196;-71
2022/10/01 02:31:43;;;;;;;1999.90;999.90;;;;;;;10.05;100.00;94705.63;6259957;22;20164;-73
2022/10/01 02:34:09;;;;;;;1999.90;999.90;;;;;;;10.00;100.00;94694.38;6259960;22;20164;-72
2022/10/01 02:36:40;;;;;;;1999.90;999.90;;;;;;;9.93;100.00;94698.00;6260074;22;20242;-71
2022/10/01 02:39:06;;;;;;;1999.90;999.90;;;;;;;9.89;100.00;94689.13;6260138;22;20242;-71
2022/10/01 02:41:35;;;;;;;1999.90;999.90;;;;;;;9.90;100.00;94687.16;6260296;22;20222;-72
2022/10/01 02:44:30;;;;;;;1999.90;999.90;;;;;;;9.82;100.00;94678.31;6261277;22;20168;-71
2022/10/01 02:47:25;;;;;;;1999.90;999.90;;;;;;;9.78;100.00;94677.63;6261905;22;20172;-71
2022/10/01 02:49:51;;;;;;;1999.90;999.90;;;;;;;9.71;100.00;94666.84;6248129;22;20203;-70
2022/10/01 02:52:33;;;;;;;1999.90;999.90;;;;;;;9.64;100.00;94666.94;6261677;22;20477;-72
2022/10/01 02:55:13;;;;;;;1999.90;999.90;;;;;;;9.57;100.00;94664.34;6261860;22;20145;-72
2022/10/01 02:57:38;;;;;;;1999.90;999.90;;;;;;;9.54;100.00;94659.72;6261402;22;20176;-72
2022/10/01 03:00:10;;;;;;;1999.90;999.90;;;;;;;9.53;100.00;94644.53;6261050;22;20202;-70
2022/10/01 03:02:36;;;;;;;1999.90;999.90;;;;;;;9.48;100.00;94636.81;6261152;22;20168;-68
2022/10/01 03:05:01;;;;;;;1999.90;999.90;;;;;;;9.51;100.00;94638.72;6261388;22;20224;-69
2022/10/01 03:07:30;;;;;;;1999.90;999.90;;;;;;;9.40;100.00;94635.41;6286635;22;20198;-71
2022/10/01 03:09:55;;;;;;;1999.90;999.90;;;;;;;9.33;100.00;94634.75;6260814;22;20168;-71
2022/10/01 03:12:22;;;;;;;1999.90;999.90;;;;;;;9.31;100.00;94631.66;6261154;22;20167;-71
2022/10/01 03:14:48;;;;;;;1999.90;999.90;;;;;;;9.27;100.00;94637.19;6261326;22;20171;-71
2022/10/01 03:17:14;;;;;;;1999.90;999.90;;;;;;;9.26;100.00;94646.53;6261219;22;20190;-72
2022/10/01 03:19:40;;;;;;;1999.90;999.90;;;;;;;9.25;100.00;94633.34;6260809;22;20175;-71
2022/10/01 03:22:07;;;;;;;1999.90;999.90;;;;;;;9.23;100.00;94627.53;6261536;22;20242;-71
2022/10/01 03:24:32;;;;;;;1999.90;999.90;;;;;;;9.25;100.00;94639.53;6261292;22;20532;-71
2022/10/01 03:26:58;;;;;;;1999.90;999.90;;;;;;;9.30;100.00;94621.97;6261402;22;20183;-73
2022/10/01 03:29:25;;;;;;;1999.90;999.90;;;;;;;9.27;100.00;94620.84;6261445;22;20166;-70
2022/10/01 03:31:51;;;;;;;1999.90;999.90;;;;;;;9.27;100.00;94617.34;6260850;22;20235;-71
2022/10/01 03:34:17;;;;;;;1999.90;999.90;;;;;;;9.27;100.00;94620.84;6260846;22;20168;-72
2022/10/01 03:36:43;;;;;;;1999.90;999.90;;;;;;;9.23;100.00;94617.41;6260837;22;20173;-72
2022/10/01 03:39:08;;;;;;;1999.90;999.90;;;;;;;9.20;100.00;94614.72;6261184;22;20184;-72
2022/10/01 03:41:33;;;;;;;1999.90;999.90;;;;;;;9.14;100.00;94617.16;6260874;22;20175;-71
2022/10/01 03:43:59;;;;;;;1999.90;999.90;;;;;;;9.16;100.00;94608.56;6260929;22;20192;-72
2022/10/01 03:46:25;;;;;;;1999.90;999.90;;;;;;;9.14;100.00;94592.63;6261076;22;20186;-71
2022/10/01 03:48:51;;;;;;;1999.90;999.90;;;;;;;9.17;100.00;94586.38;6261490;22;20180;-72
2022/10/01 03:51:19;;;;;;;1999.90;999.90;;;;;;;9.14;100.00;94576.28;6261309;22;20210;-71
2022/10/01 03:53:44;;;;;;;1999.90;999.90;;;;;;;9.06;100.00;94577.59;6261242;22;20210;-71
2022/10/01 03:56:10;;;;;;;1999.90;999.90;;;;;;;9.01;100.00;94580.00;6261037;22;20176;-70
2022/10/01 03:58:35;;;;;;;1999.90;999.90;;;;;;;9.00;100.00;94575.75;6260562;22;20511;-74
2022/10/01 04:01:01;;;;;;;1999.90;999.90;;;;;;;8.95;100.00;94574.25;6260903;22;20171;-71
2022/10/01 04:03:27;;;;;;;1999.90;999.90;;;;;;;8.87;100.00;94574.78;6260811;22;20178;-71
2022/10/01 04:05:52;;;;;;;1999.90;999.90;;;;;;;8.84;100.00;94578.31;6260921;22;20175;-70
2022/10/01 04:08:17;;;;;;;1999.90;999.90;;;;;;;8.83;100.00;94574.84;6261258;22;20177;-72
2022/10/01 04:10:43;;;;;;;1999.90;999.90;;;;;;;8.79;100.00;94579.56;6260743;22;20461;-72
2022/10/01 04:13:08;;;;;;;1999.90;999.90;;;;;;;8.78;100.00;94580.72;6261158;22;20226;-72
2022/10/01 04:15:34;;;;;;;1999.90;999.90;;;;;;;8.77;100.00;94581.91;6286053;22;20175;-72
2022/10/01 04:18:02;;;;;;;1999.90;999.90;;;;;;;8.75;100.00;94573.38;6261067;22;20249;-73
2022/10/01 04:20:27;;;;;;;1999.90;999.90;;;;;;;8.69;100.00;94585.94;6261189;22;20167;-70
2022/10/01 04:22:53;;;;;;;1999.90;999.90;;;;;;;8.67;100.00;94588.28;6261501;22;20221;-70
2022/10/01 04:25:18;;;;;;;1999.90;999.90;;;;;;;8.66;100.00;94581.31;6260800;22;20178;-72
2022/10/01 04:27:57;;;;;;;1999.90;999.90;;;;;;;8.57;100.00;94578.34;6261244;22;20172;-70
2022/10/01 04:30:23;;;;;;;1999.90;999.90;;;;;;;8.56;100.00;94582.22;6260228;22;20174;-72
2022/10/01 04:32:49;;;;;;;1999.90;999.90;;;;;;;8.53;100.00;94577.59;6260894;22;20169;-71
2022/10/01 04:35:14;;;;;;;1999.90;999.90;;;;;;;8.48;100.00;94580.78;6260907;22;20199;-72
2022/10/01 04:37:40;;;;;;;1999.90;999.90;;;;;;;8.49;100.00;94581.56;6260528;22;20190;-72
2022/10/01 04:40:05;;;;;;;1999.90;999.90;;;;;;;8.50;100.00;94583.09;6260211;22;20167;-72
2022/10/01 04:42:31;;;;;;;1999.90;999.90;;;;;;;8.48;100.00;94585.44;6261089;22;20174;-71
2022/10/01 04:44:56;;;;;;;1999.90;999.90;;;;;;;8.48;100.00;94583.50;6260735;22;20167;-71
2022/10/01 04:47:22;;;;;;;1999.90;999.90;;;;;;;8.50;100.00;94583.88;6261388;22;20172;-71
2022/10/01 04:49:48;;;;;;;1999.90;999.90;;;;;;;8.49;100.00;94581.56;6261321;22;20147;-71
2022/10/01 04:52:14;;;;;;;1999.90;999.90;;;;;;;8.46;100.00;94577.72;6260692;22;20171;-70
2022/10/01 04:54:39;;;;;;;1999.90;999.90;;;;;;;8.48;100.00;94580.78;6260868;22;20177;-72
2022/10/01 04:57:04;;;;;;;1999.90;999.90;;;;;;;8.49;100.00;94576.88;6260814;22;20220;-70
2022/10/01 04:59:30;;;;;;;1999.90;999.90;;;;;;;8.48;100.00;94583.50;6260504;22;20167;-70
2022/10/01 05:01:56;;;;;;;1999.90;999.90;;;;;;;8.47;100.00;94576.53;6286556;22;20220;-70
2022/10/01 05:04:22;;;;;;;1999.90;999.90;;;;;;;8.48;100.00;94585.44;6260555;22;20186;-71
2022/10/01 05:06:47;;;;;;;1999.90;999.90;;;;;;;8.53;100.00;94576.84;6259690;22;20170;-73
2022/10/01 05:09:12;;;;;;;1999.90;999.90;;;;;;;8.60;100.00;94580.22;6260560;22;20173;-74
2022/10/01 05:11:38;;;;;;;1999.90;999.90;;;;;;;8.67;100.00;94569.22;6286194;22;20173;-73
2022/10/01 05:14:04;;;;;;;1999.90;999.90;;;;;;;8.71;100.00;94569.94;6260640;22;20161;-74
2022/10/01 05:16:29;;;;;;;1999.90;999.90;;;;;;;8.80;100.00;94570.22;6260977;22;20186;-71
2022/10/01 05:18:54;;;;;;;1999.90;999.90;;;;;;;8.84;100.00;94565.50;6260467;22;20190;-75
2022/10/01 05:21:20;;;;;;;1999.90;999.90;;;;;;;8.90;100.00;94569.28;6260895;22;20138;-74
2022/10/01 05:23:45;;;;;;;1999.90;999.90;;;;;;;9.05;100.00;94558.94;6259815;22;20199;-73
2022/10/01 05:26:11;;;;;;;1999.90;999.90;;;;;;;9.14;100.00;94565.41;6260916;22;20185;-73
2022/10/01 05:28:43;;;;;;;1999.90;999.90;;;;;;;9.29;100.00;94563.97;6260761;22;20177;-72
2022/10/01 05:31:09;;;;;;;1999.90;999.90;;;;;;;9.47;100.00;94563.69;6260688;22;20172;-73
2022/10/01 05:33:35;;;;;;;1999.90;999.90;;;;;;;9.64;100.00;94573.50;6260038;22;20164;-69
2022/10/01 05:36:00;;;;;;;1999.90;999.90;;;;;;;9.80;100.00;94571.63;6260391;22;20178;-71
2022/10/01 05:38:26;;;;;;;1999.90;999.90;;;;;;;10.18;100.00;94568.59;6259963;22;20184;-72
2022/10/01 05:40:51;;;;;;;1999.90;999.90;;;;;;;10.66;100.00;94572.25;6286344;22;20165;-72
2022/10/01 05:43:17;;;;;;;1999.90;999.90;;;;;;;11.31;100.00;94573.06;6260194;22;20165;-73
2022/10/01 05:45:43;;;;;;;1999.90;999.90;;;;;;;11.87;100.00;94580.63;6260329;22;20175;-73
2022/10/01 05:48:09;;;;;;;1999.90;999.90;;;;;;;12.01;100.00;94593.16;6260490;22;20175;-72
2022/10/01 05:50:39;;;;;;;1999.90;999.90;;;;;;;12.25;100.00;94610.91;6260865;22;20174;-70
2022/10/01 05:53:06;;;;;;;1999.90;999.90;;;;;;;13.09;100.00;94594.78;6260610;22;20166;-71
2022/10/01 05:55:33;;;;;;;1999.90;999.90;;;;;;;13.93;100.00;94586.53;6260078;22;20291;-71
2022/10/01 05:58:10;;;;;;;1999.90;999.90;;;;;;;14.22;100.00;94548.66;6260090;22;20183;-71
2022/10/01 06:00:37;;;;;;;1999.90;999.90;;;;;;;13.99;100.00;94496.88;6260246;22;20172;-71
2022/10/01 06:03:03;;;;;;;1999.90;999.90;;;;;;;13.42;100.00;94491.84;6260446;22;20175;-72
2022/10/01 06:05:31;;;;;;;1999.90;999.90;;;;;;;13.17;100.00;94495.41;6260054;22;20164;-72
2022/10/01 06:07:57;;;;;;;1999.90;999.90;;;;;;;12.83;100.00;94502.78;6260522;22;20172;-72
2022/10/01 06:10:23;;;;;;;1999.90;999.90;;;;;;;12.63;100.00;94510.41;6260582;22;20192;-70
2022/10/01 06:12:49;;;;;;;1999.90;999.90;;;;;;;12.60;100.00;94530.47;6260078;22;20171;-71
2022/10/01 06:15:16;;;;;;;1999.90;999.90;;;;;;;12.63;100.00;94535.06;6260057;22;20211;-71
2022/10/01 06:17:45;;;;;;;1999.90;999.90;;;;;;;12.63;100.00;94551.50;6260690;22;20200;-70
2022/10/01 06:20:18;;;;;;;1999.90;999.90;;;;;;;12.81;100.00;94557.22;6261785;22;20172;-70
2022/10/01 06:22:44;;;;;;;1999.90;999.90;;;;;;;12.95;100.00;94556.78;6261545;22;20199;-70
2022/10/01 06:25:11;;;;;;;1999.90;999.90;;;;;;;13.37;100.00;94554.72;6260915;22;20207;-70
2022/10/01 06:27:36;;;;;;;1999.90;999.90;;;;;;;13.70;100.00;94545.00;6261064;22;20179;-71
2022/10/01 06:30:02;;;;;;;1999.90;999.90;;;;;;;14.11;100.00;94531.78;6261232;22;20171;-73
2022/10/01 06:32:28;;;;;;;1999.90;999.90;;;;;;;14.85;100.00;94501.53;6261723;22;20168;-75
2022/10/01 06:34:53;;;;;;;1999.90;999.90;;;;;;;15.74;100.00;94429.44;6261361;22;20165;-71
2022/10/01 06:37:18;;;;;;;1999.90;999.90;;;;;;;16.16;100.00;94339.41;6261325;22;20206;-72
2022/10/01 06:39:44;;;;;;;1999.90;999.90;;;;;;;16.07;100.00;94306.38;6261339;22;20203;-71
2022/10/01 06:42:09;;;;;;;1999.90;999.90;;;;;;;15.41;100.00;94307.44;6261005;22;20240;-72
2022/10/01 06:44:35;;;;;;;1999.90;999.90;;;;;;;15.18;100.00;94310.81;6261180;22;20159;-70
2022/10/01 06:47:00;;;;;;;1999.90;999.90;;;;;;;14.85;100.00;94342.84;6260930;22;20226;-68
2022/10/01 06:49:26;;;;;;;1999.90;999.90;;;;;;;14.64;100.00;94362.97;6261049;22;20161;-69
2022/10/01 06:54:35;;;;;;;1999.90;999.90;;;;;;;14.02;100.00;94408.16;6288188;22;20200;-70
2022/10/01 06:57:00;;;;;;;1999.90;999.90;;;;;;;13.84;100.00;94445.72;6261283;22;20176;-69
2022/10/01 06:59:26;;;;;;;1999.90;999.90;;;;;;;13.84;100.00;94462.91;6261101;22;20184;-69
2022/10/01 07:01:52;;;;;;;1999.90;999.90;;;;;;;13.83;100.00;94475.13;6261367;22;20191;-70
2022/10/01 07:04:20;;;;;;;1999.90;999.90;;;;;;;13.76;100.00;94475.38;6261004;22;20211;-70
2022/10/01 07:06:46;;;;;;;1999.90;999.90;;;;;;;13.75;100.00;94486.78;6261051;22;20221;-69
2022/10/01 07:09:11;;;;;;;1999.90;999.90;;;;;;;13.63;100.00;94485.63;6261328;22;20172;-70
2022/10/01 07:11:40;;;;;;;1999.90;999.90;;;;;;;13.67;100.00;94497.25;6261725;22;20157;-70
2022/10/01 07:14:08;;;;;;;1999.90;999.90;;;;;;;13.66;100.00;94492.97;6261674;22;20172;-70
2022/10/01 07:16:36;;;;;;;1999.90;999.90;;;;;;;13.81;100.00;94496.78;6261600;22;20165;-70
2022/10/01 07:19:01;;;;;;;1999.90;999.90;;;;;;;13.87;100.00;94489.47;6260864;22;20184;-71
2022/10/01 07:21:26;;;;;;;1999.90;999.90;;;;;;;13.74;100.00;94497.00;6260837;22;20172;-74
2022/10/01 07:23:53;;;;;;;1999.90;999.90;;;;;;;13.48;100.00;94495.56;6260857;22;20243;-73
2022/10/01 07:26:18;;;;;;;1999.90;999.90;;;;;;;13.31;100.00;94507.88;6261130;22;20172;-75
2022/10/01 07:28:45;;;;;;;1999.90;999.90;;;;;;;13.27;100.00;94520.94;6261188;22;20215;-75
2022/10/01 07:31:11;;;;;;;1999.90;999.90;;;;;;;13.28;100.00;94517.00;6260267;22;20164;-73
2022/10/01 07:33:40;;;;;;;1999.90;999.90;;;;;;;13.39;100.00;94520.16;6260860;22;20231;-72
2022/10/01 07:36:07;;;;;;;1999.90;999.90;;;;;;;13.41;100.00;94528.72;6261067;22;20174;-73
2022/10/01 07:38:33;;;;;;;1999.90;999.90;;;;;;;13.44;100.00;94519.59;6261232;22;20239;-72
2022/10/01 07:41:01;;;;;;;1999.90;999.90;;;;;;;13.52;100.00;94520.91;6261879;22;20179;-72
2022/10/01 07:43:27;;;;;;;1999.90;999.90;;;;;;;13.53;100.00;94525.16;6261279;22;20179;-73
2022/10/01 07:45:55;;;;;;;1999.90;999.90;;;;;;;13.63;100.00;94523.28;6260696;22;20235;-73
2022/10/01 07:48:21;;;;;;;1999.90;999.90;;;;;;;13.52;100.00;94518.16;6261444;22;20172;-73
2022/10/01 07:50:46;;;;;;;1999.90;999.90;;;;;;;13.58;100.00;94529.34;6260495;22;20176;-73
2022/10/01 07:53:11;;;;;;;1999.90;999.90;;;;;;;13.60;100.00;94522.19;6260717;22;20168;-73
2022/10/01 07:55:38;;;;;;;1999.90;999.90;;;;;;;13.72;100.00;94526.88;6260841;22;20172;-72
2022/10/01 07:58:04;;;;;;;1999.90;999.90;;;;;;;13.76;100.00;94521.28;6260444;22;20187;-72
2022/10/01 08:00:31;;;;;;;1999.90;999.90;;;;;;;13.81;100.00;94513.22;6260552;22;20172;-72
2022/10/01 08:02:57;;;;;;;1999.90;999.90;;;;;;;13.87;100.00;94500.47;6260432;22;20179;-72
2022/10/01 08:05:25;;;;;;;1999.90;999.90;;;;;;;13.91;100.00;94495.59;6260986;22;20172;-72
2022/10/01 08:07:51;;;;;;;1999.90;999.90;;;;;;;13.89;100.00;94476.09;6261051;22;20156;-72
2022/10/01 08:10:18;;;;;;;1999.90;999.90;;;;;;;13.85;100.00;94464.47;6261028;22;20214;-72
2022/10/01 08:12:44;;;;;;;1999.90;999.90;;;;;;;13.92;100.00;94461.47;6261026;22;20171;-73
2022/10/01 08:15:11;;;;;;;1999.90;999.90;;;;;;;13.98;100.00;94456.91;6260162;22;20231;-72
2022/10/01 08:17:38;;;;;;;1999.90;999.90;;;;;;;14.08;100.00;94455.78;6260515;22;20238;-72
2022/10/01 08:20:05;;;;;;;1999.90;999.90;;;;;;;14.26;100.00;94439.44;6260515;22;20180;-72
2022/10/01 08:22:31;;;;;;;1999.90;999.90;;;;;;;14.29;100.00;94427.56;6260378;22;20172;-73
2022/10/01 08:24:56;;;;;;;1999.90;999.90;;;;;;;14.28;100.00;94420.50;6260879;22;20210;-73
2022/10/01 08:27:25;;;;;;;1999.90;999.90;;;;;;;14.43;100.00;94413.28;6260766;22;20168;-72
2022/10/01 08:29:52;;;;;;;1999.90;999.90;;;;;;;14.61;100.00;94407.84;6260464;22;20180;-73
2022/10/01 08:32:18;;;;;;;1999.90;999.90;;;;;;;14.56;100.00;94396.66;6260629;22;20172;-73
2022/10/01 08:34:43;;;;;;;1999.90;999.90;;;;;;;14.51;100.00;94389.81;6260891;22;20184;-75
2022/10/01 08:37:08;;;;;;;1999.90;999.90;;;;;;;14.40;100.00;94383.19;6260902;22;20156;-73
2022/10/01 08:39:35;;;;;;;1999.90;999.90;;;;;;;14.54;100.00;94386.16;6260719;22;20176;-74
2022/10/01 08:42:15;;;;;;;1999.90;999.90;;;;;;;14.64;100.00;94384.94;6260255;22;20169;-73
2022/10/01 08:44:44;;;;;;;1999.90;999.90;;;;;;;14.80;100.00;94379.22;6260633;22;20175;-76
2022/10/01 08:47:23;;;;;;;1999.90;999.90;;;;;;;14.68;100.00;94366.34;6260067;22;20184;-74
2022/10/01 08:49:58;;;;;;;1999.90;999.90;;;;;;;14.51;100.00;94367.81;6260465;22;20168;-73
2022/10/01 08:52:28;;;;;;;1999.90;999.90;;;;;;;14.51;100.00;94373.31;6260888;22;20178;-74
2022/10/01 08:55:02;;;;;;;1999.90;999.90;;;;;;;14.55;100.00;94371.19;6260949;22;20172;-71
2022/10/01 08:57:41;;;;;;;1999.90;999.90;;;;;;;14.60;100.00;94376.09;6260842;22;20183;-74
2022/10/01 09:00:13;;;;;;;1999.90;999.90;;;;;;;14.62;100.00;94383.88;6260960;22;20179;-70
2022/10/01 09:02:42;;;;;;;1999.90;999.90;;;;;;;14.60;100.00;94370.59;6260234;22;20235;-72
2022/10/01 09:05:23;;;;;;;1999.90;999.90;;;;;;;14.62;100.00;94373.66;6260072;22;20191;-71
2022/10/01 09:08:08;;;;;;;1999.90;999.90;;;;;;;14.71;100.00;94373.66;6286212;22;20196;-71
2022/10/01 09:10:46;;;;;;;1999.90;999.90;;;;;;;14.77;100.00;94369.13;6285672;22;20184;-72
2022/10/01 09:13:38;;;;;;;1999.90;999.90;;;;;;;14.77;100.00;94366.38;6260776;22;20167;-71
2022/10/01 09:16:37;;;;;;;1999.90;999.90;;;;;;;14.81;100.00;94347.75;6260828;22;20176;-71
2022/10/01 09:19:19;;;;;;;1999.90;999.90;;;;;;;14.79;100.00;94344.66;6253850;22;20268;-71
2022/10/01 09:22:06;;;;;;;1999.90;999.90;;;;;;;14.89;100.00;94348.97;6260326;22;20172;-71
2022/10/01 09:24:44;;;;;;;1999.90;999.90;;;;;;;14.89;100.00;94340.72;6260569;22;20172;-72
2022/10/01 09:27:23;;;;;;;1999.90;999.90;;;;;;;14.95;100.00;94343.63;6260585;22;20171;-73
2022/10/01 09:29:59;;;;;;;1999.90;999.90;;;;;;;14.78;100.00;94334.13;6260770;22;20237;-72
2022/10/01 09:32:29;;;;;;;1999.90;999.90;;;;;;;14.96;100.00;94340.44;6260814;22;20175;-73
2022/10/01 09:34:59;;;;;;;1999.90;999.90;;;;;;;14.94;100.00;94340.09;6260452;22;20170;-73
2022/10/01 09:37:47;;;;;;;1999.90;999.90;;;;;;;15.11;100.00;94338.59;6260222;22;20184;-73
2022/10/01 09:40:22;;;;;;;1999.90;999.90;;;;;;;15.27;100.00;94330.03;6260433;22;20144;-73
2022/10/01 09:42:48;;;;;;;1999.90;999.90;;;;;;;15.12;100.00;94334.63;6260397;22;20183;-72
2022/10/01 09:45:14;;;;;;;1999.90;999.90;;;;;;;15.10;100.00;94339.84;6260675;22;20192;-73
2022/10/01 09:47:44;;;;;;;1999.90;999.90;;;;;;;15.19;100.00;94334.31;6260768;22;20199;-73
2022/10/01 09:50:24;;;;;;;1999.90;999.90;;;;;;;15.14;100.00;94345.94;6260321;22;20168;-73
2022/10/01 09:52:51;;;;;;;1999.90;999.90;;;;;;;15.06;100.00;94347.47;6259601;22;20168;-72
2022/10/01 09:55:35;;;;;;;1999.90;999.90;;;;;;;14.94;100.00;94356.59;6260072;22;20165;-73
2022/10/01 09:58:22;;;;;;;1999.90;999.90;;;;;;;15.05;100.00;94340.41;6260422;22;20184;-72
2022/10/01 10:00:50;;;;;;;1999.90;999.90;;;;;;;14.90;100.00;94356.00;6259955;22;20176;-74
2022/10/01 10:03:25;;;;;;;1999.90;999.90;;;;;;;14.90;100.00;94372.50;6259690;22;20177;-74
2022/10/01 10:05:51;;;;;;;1999.90;999.90;;;;;;;14.88;100.00;94394.19;6260228;22;20172;-74
2022/10/01 10:08:28;;;;;;;1999.90;999.90;;;;;;;14.81;100.00;94407.44;6260162;22;20168;-72
2022/10/01 10:11:04;;;;;;;1999.90;999.90;;;;;;;14.81;100.00;94429.44;6260229;22;20221;-70
2022/10/01 10:13:39;;;;;;;1999.90;999.90;;;;;;;14.74;100.00;94460.72;6260174;22;20226;-69
2022/10/01 10:16:31;;;;;;;1999.90;999.90;;;;;;;14.76;100.00;94483.03;6260651;22;20491;-70
2022/10/01 10:19:09;;;;;;;1999.90;999.90;;;;;;;14.50;100.00;94508.41;6259580;22;20193;-70
2022/10/01 10:21:35;;;;;;;1999.90;999.90;;;;;;;14.36;100.00;94508.91;6260363;22;20353;-70
2022/10/01 10:24:03;;;;;;;1999.90;999.90;;;;;;;14.27;100.00;94537.09;6260029;22;20179;-69
2022/10/01 10:26:32;;;;;;;1999.90;999.90;;;;;;;14.18;100.00;94561.72;6259903;22;20195;-69
2022/10/01 10:29:01;;;;;;;1999.90;999.90;;;;;;;14.13;100.00;94583.50;6259898;22;20184;-70
2022/10/01 10:31:28;;;;;;;1999.90;999.90;;;;;;;14.04;100.00;94595.16;6285305;22;20231;-73
2022/10/01 10:34:13;;;;;;;1999.90;999.90;;;;;;;13.78;100.00;94601.16;6259823;22;20174;-73
2022/10/01 10:36:40;;;;;;;1999.90;999.90;;;;;;;13.71;100.00;94629.59;6259928;22;20192;-73
2022/10/01 10:39:19;;;;;;;1999.90;999.90;;;;;;;13.55;100.00;94642.69;6259974;22;20179;-74
2022/10/01 10:41:47;;;;;;;1999.90;999.90;;;;;;;13.45;100.00;94655.53;6260135;22;20175;-73
2022/10/01 10:44:20;;;;;;;1999.90;999.90;;;;;;;13.38;100.00;94677.69;6260011;22;20384;-73
2022/10/01 10:46:46;;;;;;;1999.90;999.90;;;;;;;13.32;100.00;94687.66;6259735;22;20169;-73
2022/10/01 10:49:20;;;;;;;1999.90;999.90;;;;;;;13.27;100.00;94699.19;6259998;22;20171;-75
2022/10/01 10:51:52;;;;;;;1999.90;999.90;;;;;;;13.19;100.00;94709.59;6260316;22;20237;-73
2022/10/01 10:54:24;;;;;;;1999.90;999.90;;;;;;;13.05;100.00;94717.47;6259868;22;20168;-75
2022/10/01 10:57:01;;;;;;;1999.90;999.90;;;;;;;12.98;100.00;94723.16;6285177;22;20174;-72
2022/10/01 10:59:32;;;;;;;1999.90;999.90;;;;;;;12.88;100.00;94730.44;6259743;22;20415;-72
2022/10/01 11:02:00;;;;;;;1999.90;999.90;;;;;;;12.87;100.00;94719.91;6259448;22;20178;-72
2022/10/01 11:04:33;;;;;;;1999.90;999.90;;;;;;;12.84;100.00;94721.53;6260357;22;20189;-72